createdAt,value
2018-12-04T00:05:46.327Z,95.79
2018-12-04T00:11:49.644Z,96.86
2018-12-04T00:17:53.037Z,96.15
2018-12-04T00:23:56.366Z,95.67
2018-12-04T00:29:59.706Z,95.43
2018-12-04T00:36:03.048Z,94.76
2018-12-04T00:42:06.361Z,94.47
2018-12-04T00:48:09.693Z,95.43
2018-12-04T00:54:12.997Z,96.10
2018-12-04T01:00:16.453Z,95.52
2018-12-04T01:06:19.785Z,95.22
2018-12-04T01:12:23.104Z,92.29
2018-12-04T01:18:26.503Z,92.79
2018-12-04T01:24:29.816Z,92.38
2018-12-04T01:30:33.221Z,92.20
2018-12-04T01:36:36.533Z,91.81
2018-12-04T01:42:39.853Z,91.80
2018-12-04T01:54:52.624Z,90.77
2018-12-04T02:00:55.929Z,89.54
2018-12-04T02:06:59.259Z,86.93
2018-12-04T02:13:02.561Z,85.62
2018-12-04T02:19:05.910Z,84.89
2018-12-04T02:25:09.225Z,84.16
2018-12-04T02:31:12.524Z,84.21
2018-12-04T02:37:15.822Z,84.31
2018-12-04T02:43:19.166Z,85.89
2018-12-04T02:49:22.460Z,85.84
2018-12-04T02:55:25.764Z,86.79
2018-12-04T03:01:29.052Z,87.26
2018-12-04T03:07:32.365Z,87.06
2018-12-04T03:13:35.662Z,87.24
2018-12-04T03:19:39.002Z,88.74
2018-12-04T03:25:42.317Z,87.85
2018-12-04T03:31:45.664Z,87.83
2018-12-04T03:37:49.083Z,88.25
2018-12-04T03:43:52.463Z,88.79
2018-12-04T03:49:55.767Z,87.32
2018-12-04T03:55:59.086Z,87.45
2018-12-04T04:02:02.443Z,88.03
2018-12-04T04:08:05.765Z,88.49
2018-12-04T04:14:09.075Z,87.88
2018-12-04T04:20:12.391Z,86.81
2018-12-04T04:26:15.717Z,86.94
2018-12-04T04:32:19.114Z,86.39
2018-12-04T04:38:22.445Z,86.53
2018-12-04T04:44:25.769Z,85.46
2018-12-04T04:50:29.226Z,86.04
2018-12-04T04:56:32.551Z,85.15
2018-12-04T05:02:35.873Z,86.01
2018-12-04T05:08:39.178Z,85.14
2018-12-04T05:14:42.485Z,85.60
2018-12-04T05:20:45.800Z,86.08
2018-12-04T05:26:49.133Z,86.10
2018-12-04T05:32:52.496Z,85.67
2018-12-04T05:38:55.811Z,86.76
2018-12-04T05:44:59.131Z,85.78
2018-12-04T05:51:02.453Z,85.36
2018-12-04T05:57:05.771Z,85.91
2018-12-04T06:03:09.075Z,86.05
2018-12-04T06:09:12.399Z,86.68
2018-12-04T06:15:15.742Z,86.50
2018-12-04T06:21:19.053Z,85.89
2018-12-04T06:27:22.404Z,86.72
2018-12-04T06:33:25.711Z,84.66
2018-12-04T06:39:29.020Z,83.25
2018-12-04T06:45:32.339Z,83.06
2018-12-04T06:51:35.665Z,83.30
2018-12-04T06:57:38.968Z,82.56
2018-12-04T07:03:42.271Z,82.91
2018-12-04T07:09:45.593Z,83.55
2018-12-04T07:15:48.907Z,83.20
2018-12-04T07:21:52.205Z,83.16
2018-12-04T07:27:55.528Z,83.71
2018-12-04T07:33:58.849Z,84.25
2018-12-04T07:40:02.158Z,84.94
2018-12-04T07:46:05.466Z,84.11
2018-12-04T07:52:08.770Z,83.53
2018-12-04T07:58:12.087Z,83.64
2018-12-04T08:04:15.413Z,83.30
2018-12-04T08:10:18.725Z,82.54
2018-12-04T08:16:22.069Z,82.64
2018-12-04T08:22:25.374Z,82.14
2018-12-04T08:28:28.679Z,82.21
2018-12-04T08:34:32.011Z,83.08
2018-12-04T08:40:35.316Z,83.59
2018-12-04T08:46:38.628Z,83.50
2018-12-04T08:52:41.946Z,83.43
2018-12-04T08:58:45.277Z,83.43
2018-12-04T09:04:48.580Z,83.21
2018-12-04T09:10:51.884Z,82.22
2018-12-04T09:16:55.208Z,81.80
2018-12-04T09:22:58.653Z,81.08
2018-12-04T09:29:02.132Z,81.16
2018-12-04T09:35:05.969Z,80.76
2018-12-04T09:41:09.271Z,78.72
2018-12-04T09:47:12.577Z,78.74
2018-12-04T09:53:15.883Z,80.35
2018-12-04T09:59:19.295Z,80.06
2018-12-04T10:05:22.726Z,79.58
2018-12-04T10:11:26.050Z,79.76
2018-12-04T10:17:29.424Z,79.23
2018-12-04T10:23:32.748Z,78.22
2018-12-04T10:29:36.049Z,78.72
2018-12-04T10:35:49.376Z,78.90
2018-12-04T10:41:52.692Z,77.64
2018-12-04T10:47:56.026Z,77.52
2018-12-04T10:53:59.321Z,76.58
2018-12-04T11:00:02.631Z,73.73
2018-12-04T11:06:06.358Z,73.65
2018-12-04T11:12:12.204Z,70.82
2018-12-04T11:18:14.985Z,72.21
2018-12-04T11:24:18.296Z,71.44
2018-12-04T11:30:21.628Z,70.92
2018-12-04T11:36:24.939Z,69.93
2018-12-04T11:42:28.265Z,68.89
2018-12-04T11:48:31.579Z,68.47
2018-12-04T11:54:34.894Z,68.46
2018-12-04T12:00:38.210Z,68.27
2018-12-04T12:06:41.537Z,69.53
2018-12-04T12:12:45.653Z,68.59
2018-12-04T12:18:48.957Z,68.14
2018-12-04T12:24:52.546Z,68.71
2018-12-04T12:30:55.848Z,69.75
2018-12-04T12:36:59.164Z,67.80
2018-12-04T12:43:02.492Z,67.32
2018-12-04T12:49:05.798Z,66.29
2018-12-04T12:55:09.123Z,66.51
2018-12-04T13:01:12.524Z,66.59
2018-12-04T13:07:15.851Z,66.68
2018-12-04T13:13:19.172Z,65.43
2018-12-04T13:19:22.499Z,67.20
2018-12-04T13:25:25.822Z,67.76
2018-12-04T13:31:29.178Z,68.08
2018-12-04T13:37:32.516Z,68.30
2018-12-04T13:43:35.920Z,68.59
2018-12-04T13:49:39.217Z,67.66
2018-12-04T13:55:42.534Z,68.46
2018-12-04T14:01:45.949Z,68.29
2018-12-04T14:07:49.240Z,68.40
2018-12-04T14:13:52.607Z,68.19
2018-12-04T14:19:55.934Z,68.09
2018-12-04T14:25:59.235Z,65.86
2018-12-04T14:32:02.534Z,66.18
2018-12-04T14:38:05.955Z,67.50
2018-12-04T14:50:18.518Z,67.83
2018-12-04T14:56:21.868Z,68.62
2018-12-04T15:02:25.330Z,68.75
2018-12-04T15:08:28.856Z,69.33
2018-12-04T15:14:32.291Z,69.97
2018-12-04T15:20:35.703Z,71.22
2018-12-04T15:26:39.900Z,72.02
2018-12-04T15:32:43.240Z,72.72
2018-12-04T15:38:46.703Z,73.34
2018-12-04T15:44:50.101Z,73.71
2018-12-04T15:50:59.711Z,73.91
2018-12-04T15:56:58.848Z,75.40
2018-12-04T16:03:02.169Z,76.10
2018-12-04T16:09:07.320Z,76.58
2018-12-04T16:15:10.787Z,77.38
2018-12-04T16:21:14.197Z,77.30
2018-12-04T16:27:17.528Z,77.41
2018-12-04T16:33:20.837Z,77.65
2018-12-04T16:39:24.149Z,78.26
2018-12-04T16:45:27.531Z,78.41
2018-12-04T16:51:31.793Z,78.83
2018-12-04T16:57:35.109Z,79.82
2018-12-04T17:03:38.449Z,80.18
2018-12-04T17:09:41.769Z,81.05
2018-12-04T17:15:45.069Z,81.62
2018-12-04T17:21:48.374Z,81.66
2018-12-04T17:27:51.679Z,83.04
2018-12-04T17:33:55.168Z,83.15
2018-12-04T17:39:58.636Z,84.45
2018-12-04T17:46:01.976Z,84.70
2018-12-04T17:52:05.295Z,84.33
2018-12-04T17:58:08.632Z,85.38
2018-12-04T18:04:11.954Z,86.09
2018-12-04T18:10:15.289Z,86.42
2018-12-04T18:16:18.611Z,87.29
2018-12-04T18:22:22.072Z,86.75
2018-12-04T18:28:25.405Z,87.27
2018-12-04T18:34:28.727Z,86.50
2018-12-04T18:40:32.103Z,86.34
2018-12-04T18:46:35.411Z,86.81
2018-12-04T18:52:40.199Z,85.73
2018-12-04T18:58:43.505Z,85.41
2018-12-04T19:04:46.849Z,85.70
2018-12-04T19:10:50.200Z,85.76
2018-12-04T19:16:54.469Z,86.09
2018-12-04T19:22:57.948Z,86.39
2018-12-04T19:29:01.283Z,86.46
2018-12-04T19:35:07.447Z,86.34
2018-12-04T19:41:10.763Z,86.17
2018-12-04T19:47:14.084Z,86.84
2018-12-04T19:53:17.476Z,87.01
2018-12-04T19:59:20.785Z,87.46
2018-12-04T20:05:24.089Z,87.95
2018-12-04T20:11:27.416Z,87.97
2018-12-04T20:17:30.778Z,87.78
2018-12-04T20:23:34.185Z,87.81
2018-12-04T20:29:37.499Z,88.32
2018-12-04T20:35:40.815Z,88.29
2018-12-04T20:41:44.130Z,88.02
2018-12-04T20:47:47.444Z,88.37
2018-12-04T20:53:50.787Z,87.56
2018-12-04T20:59:54.128Z,88.01
2018-12-04T21:05:57.514Z,88.01
2018-12-04T21:12:00.901Z,88.51
2018-12-04T21:18:04.232Z,89.18
2018-12-04T21:24:07.562Z,88.52
2018-12-04T21:30:16.479Z,88.10
2018-12-04T21:36:25.311Z,88.76
2018-12-04T21:42:34.122Z,88.59
2018-12-04T21:48:37.437Z,88.06
2018-12-04T21:54:40.770Z,86.99
2018-12-04T22:00:44.140Z,87.43
2018-12-04T22:06:47.451Z,87.95
2018-12-04T22:12:50.772Z,87.79
2018-12-04T22:18:54.105Z,88.02
2018-12-04T22:24:57.443Z,87.85
2018-12-04T22:31:00.779Z,88.00
2018-12-04T22:37:04.093Z,87.97
2018-12-04T22:43:07.436Z,88.60
2018-12-04T22:49:10.757Z,88.46
2018-12-04T22:55:14.152Z,88.73
2018-12-04T23:07:50.906Z,91.70
2018-12-04T23:13:54.319Z,91.33
2018-12-04T23:19:57.657Z,90.87
2018-12-04T23:26:01.020Z,91.16
2018-12-04T23:32:04.371Z,90.09
2018-12-04T23:38:07.707Z,90.23
2018-12-04T23:44:11.050Z,89.81
2018-12-04T23:50:14.381Z,89.78
2018-12-04T23:56:17.703Z,90.17
